Aérodrome :
LOGIN :

S'inscrire | Disclaimer

   EN    FR    IT 

 










Légende :    VFR   VFR Marginal   IFR   IFR Intensif   IFR Très Intensif
Visi : 
Plafond : 
>= 8 km
>= 3000ft
5 à 8 km
1000 à 3000 ft
1500m à 5 km
500 à 1000 ft
800 à 1500m
200 à 500 ft
< 800m
< 200 ft
Symboles :   Orages  Brouillard  Fortes neiges  Fortes précipitations  Vent > 20 kt
SIGMETs :   Divers  Orages  Givrage  Turbulence  Onde Orograph.  Cendres Volcan.







- Altitude de l'aérodrome : 33 ft
- Code IATA : MHZ


EGUN - RAF Mildenhall

DERNIER METAR :
  • 171756Z AUTO 19005KT 9999 BKN100 BKN120 OVC150 12/12 A3002 RMK AO2 SLP169 6//// T01220120 10158 20120 55005 $

METARs EXPIRÉS :
  • 171656Z AUTO 22004KT 9999 BKN100 13/12 A3001 RMK AO2 RAB17E38 SLP166 P0000 T01250120 $
  • 171638Z AUTO 22007KT 9999 FEW026 BKN100 13/12 A3001 RMK AO2 RAB17E38 SLP166 $
  • 171617Z AUTO 22009KT 9999 -RA FEW100 14/10 A3003 RMK AO2 RAB17 SLP172 $
  • 171556Z AUTO 23008KT 9999 FEW120 14/09 A3003 RMK AO2 SLP172 T01400090 $

TAF AMD TAF EGUN
Valide du 17 à 16h jusqu'au 18 à 18h UTC


171627Z 1716/1818 25012KT 8000 -SHRA BKN040 QNH3000INS
BECMG 1723/1724 VRB06KT 8000 -SHRA SCT025 BKN050 QNH2990INS
BECMG 1805/1806 06009KT 9000 -SHRA BKN070 QNH2988INS
BECMG 1811/1812 07009KT 8000 -RA OVC010 QNH2982INS
TEMPO 1812/1815 OVC005 TX16/1814Z TN10/1803Z
Pas de NOTAMs connus pour ce terrain.



MET'MAP, la Météo Aéronautique d'un coup d'oeil ! - Copyright ORBIFLY Décembre 2007 - Disclaimer

ORBIFLY MET'MAP TEAM :

Programmation & Développement : Alexandra Zaïnal
Conception & Développement : Baudouin d'Aumeries
Co-Programmation & Développement : Marc-Olivier Méhu
Soutien technique & logistique : Manuel Goepfert

Contact : metmap@orbifly.com




SOURCES & CREDITS :

   NOAA